Kelowna, Canada
Current Conditions -  °F | °C
As of 1:00 PM on Monday 22 Dec 2014 (Local Time) from CYLW Reporting Station
Overcast Overcast  
Wind Chill: 43°   Ceiling: 8500
Heat Index: 43°   Visibility: 9mi
Dew Point: 32°   Wind: 3mph
Humidity: 66%   Direction: 210°SSW
Pressure: 30.23"   Gusts: NA
Location:  49.89°N, 119.5°W
Report Text: CYLW 222100Z AUTO 21003KT 180V240 9SM OVC085 06/M00 A3023 RMK SLP250
Loading
Personal Weather Stations






























Interactive Weather Map New forecast layout! Learn more

10-Day Weather Forecast

Advertisements
Track Severe Weather on mobile